sensor_id;sensor_type;location;lat;lon;timestamp;pressure;altitude;pressure_sealevel;temperature;humidity
22743;BME280;11538;48.884;8.696;2023-08-20T00:01:36;99098.72;;;23.14;100.00
22743;BME280;11538;48.884;8.696;2023-08-20T00:04:03;99093.91;;;23.07;100.00
22743;BME280;11538;48.884;8.696;2023-08-20T00:06:31;99093.47;;;23.05;100.00
22743;BME280;11538;48.884;8.696;2023-08-20T00:08:58;99094.31;;;23.09;100.00
22743;BME280;11538;48.884;8.696;2023-08-20T00:11:26;99094.75;;;23.11;100.00
22743;BME280;11538;48.884;8.696;2023-08-20T00:13:54;99092.72;;;23.08;100.00
22743;BME280;11538;48.884;8.696;2023-08-20T00:16:21;99090.75;;;23.08;100.00
22743;BME280;11538;48.884;8.696;2023-08-20T00:18:48;99087.97;;;23.08;100.00
22743;BME280;11538;48.884;8.696;2023-08-20T00:21:16;99083.66;;;23.11;100.00
22743;BME280;11538;48.884;8.696;2023-08-20T00:23:43;99083.94;;;23.02;100.00
22743;BME280;11538;48.884;8.696;2023-08-20T00:26:11;99083.09;;;22.95;100.00
22743;BME280;11538;48.884;8.696;2023-08-20T00:28:39;99089.47;;;22.99;100.00
22743;BME280;11538;48.884;8.696;2023-08-20T00:31:06;99087.03;;;22.93;100.00
22743;BME280;11538;48.884;8.696;2023-08-20T00:33:33;99083.84;;;22.91;100.00
22743;BME280;11538;48.884;8.696;2023-08-20T00:36:00;99091.81;;;22.97;100.00
22743;BME280;11538;48.884;8.696;2023-08-20T00:38:27;99098.84;;;22.90;100.00
22743;BME280;11538;48.884;8.696;2023-08-20T00:40:54;99099.19;;;22.89;100.00
22743;BME280;11538;48.884;8.696;2023-08-20T00:43:21;99105.81;;;22.81;100.00
22743;BME280;11538;48.884;8.696;2023-08-20T00:45:48;99092.28;;;22.72;100.00
22743;BME280;11538;48.884;8.696;2023-08-20T00:48:16;99100.50;;;22.68;100.00
22743;BME280;11538;48.884;8.696;2023-08-20T00:50:44;99100.56;;;22.72;100.00
22743;BME280;11538;48.884;8.696;2023-08-20T00:53:13;99105.78;;;22.77;100.00
22743;BME280;11538;48.884;8.696;2023-08-20T00:55:42;99104.28;;;22.83;100.00
22743;BME280;11538;48.884;8.696;2023-08-20T00:58:12;99100.59;;;22.75;100.00
22743;BME280;11538;48.884;8.696;2023-08-20T01:00:39;99107.28;;;22.71;100.00
22743;BME280;11538;48.884;8.696;2023-08-20T01:03:06;99104.19;;;22.76;100.00
22743;BME280;11538;48.884;8.696;2023-08-20T01:05:46;99112.06;;;22.74;100.00
22743;BME280;11538;48.884;8.696;2023-08-20T01:08:27;99102.84;;;22.66;100.00
22743;BME280;11538;48.884;8.696;2023-08-20T01:11:30;99107.50;;;22.58;100.00
22743;BME280;11538;48.884;8.696;2023-08-20T01:14:00;99111.53;;;22.64;100.00
22743;BME280;11538;48.884;8.696;2023-08-20T01:16:27;99107.19;;;22.63;100.00
22743;BME280;11538;48.884;8.696;2023-08-20T01:18:54;99114.31;;;22.64;100.00
22743;BME280;11538;48.884;8.696;2023-08-20T01:21:39;99102.44;;;22.64;100.00
22743;BME280;11538;48.884;8.696;2023-08-20T01:24:38;99115.38;;;22.56;100.00
22743;BME280;11538;48.884;8.696;2023-08-20T01:30:15;99111.72;;;22.52;100.00
22743;BME280;11538;48.884;8.696;2023-08-20T01:32:42;99115.63;;;22.47;100.00
22743;BME280;11538;48.884;8.696;2023-08-20T01:35:13;99113.22;;;22.46;100.00
22743;BME280;11538;48.884;8.696;2023-08-20T01:37:41;99120.78;;;22.49;100.00
22743;BME280;11538;48.884;8.696;2023-08-20T01:40:08;99113.16;;;22.42;100.00
22743;BME280;11538;48.884;8.696;2023-08-20T01:42:38;99125.72;;;22.40;100.00
22743;BME280;11538;48.884;8.696;2023-08-20T01:45:06;99118.75;;;22.46;100.00
22743;BME280;11538;48.884;8.696;2023-08-20T01:47:34;99118.56;;;22.35;100.00
22743;BME280;11538;48.884;8.696;2023-08-20T01:50:01;99111.78;;;22.29;100.00
22743;BME280;11538;48.884;8.696;2023-08-20T01:52:33;99115.75;;;22.31;100.00
22743;BME280;11538;48.884;8.696;2023-08-20T01:55:01;99122.94;;;22.36;100.00
22743;BME280;11538;48.884;8.696;2023-08-20T01:57:28;99119.34;;;22.35;100.00
22743;BME280;11538;48.884;8.696;2023-08-20T01:59:55;99122.94;;;22.36;100.00
22743;BME280;11538;48.884;8.696;2023-08-20T02:02:22;99121.81;;;22.41;100.00
22743;BME280;11538;48.884;8.696;2023-08-20T02:04:49;99126.91;;;22.39;100.00
22743;BME280;11538;48.884;8.696;2023-08-20T02:07:16;99126.44;;;22.33;100.00
22743;BME280;11538;48.884;8.696;2023-08-20T02:09:44;99118.50;;;22.31;100.00
22743;BME280;11538;48.884;8.696;2023-08-20T02:12:10;99134.31;;;22.31;100.00
22743;BME280;11538;48.884;8.696;2023-08-20T02:14:38;99140.50;;;22.24;100.00
22743;BME280;11538;48.884;8.696;2023-08-20T02:17:06;99128.59;;;22.20;100.00
22743;BME280;11538;48.884;8.696;2023-08-20T02:19:33;99128.47;;;22.13;100.00
22743;BME280;11538;48.884;8.696;2023-08-20T02:22:00;99131.63;;;22.11;100.00
22743;BME280;11538;48.884;8.696;2023-08-20T02:24:27;99122.53;;;22.11;100.00
22743;BME280;11538;48.884;8.696;2023-08-20T02:26:54;99116.56;;;22.09;100.00
22743;BME280;11538;48.884;8.696;2023-08-20T02:29:21;99109.28;;;21.97;100.00
22743;BME280;11538;48.884;8.696;2023-08-20T02:31:48;99116.63;;;21.89;100.00
22743;BME280;11538;48.884;8.696;2023-08-20T02:34:15;99111.03;;;21.85;100.00
22743;BME280;11538;48.884;8.696;2023-08-20T02:36:42;99113.03;;;21.85;100.00
22743;BME280;11538;48.884;8.696;2023-08-20T02:39:09;99110.38;;;21.92;100.00
22743;BME280;11538;48.884;8.696;2023-08-20T02:41:37;99104.34;;;21.86;100.00
22743;BME280;11538;48.884;8.696;2023-08-20T02:44:04;99105.09;;;21.83;100.00
22743;BME280;11538;48.884;8.696;2023-08-20T02:46:31;99104.63;;;21.77;100.00
22743;BME280;11538;48.884;8.696;2023-08-20T02:48:58;99097.06;;;21.74;100.00
22743;BME280;11538;48.884;8.696;2023-08-20T02:51:25;99096.75;;;21.80;100.00
22743;BME280;11538;48.884;8.696;2023-08-20T02:53:52;99085.84;;;21.87;100.00
22743;BME280;11538;48.884;8.696;2023-08-20T02:56:19;99084.78;;;21.95;100.00
22743;BME280;11538;48.884;8.696;2023-08-20T02:58:46;99080.88;;;21.96;100.00
22743;BME280;11538;48.884;8.696;2023-08-20T03:01:25;99084.88;;;21.99;100.00
22743;BME280;11538;48.884;8.696;2023-08-20T03:03:53;99092.72;;;21.97;100.00
22743;BME280;11538;48.884;8.696;2023-08-20T03:06:20;99094.66;;;21.96;100.00
22743;BME280;11538;48.884;8.696;2023-08-20T03:08:46;99090.13;;;21.84;100.00
22743;BME280;11538;48.884;8.696;2023-08-20T03:11:14;99090.00;;;21.77;100.00
22743;BME280;11538;48.884;8.696;2023-08-20T03:13:40;99085.72;;;21.80;100.00
22743;BME280;11538;48.884;8.696;2023-08-20T03:16:07;99091.25;;;21.80;100.00
22743;BME280;11538;48.884;8.696;2023-08-20T03:18:34;99081.06;;;21.84;100.00
22743;BME280;11538;48.884;8.696;2023-08-20T03:21:01;99084.97;;;21.83;100.00
22743;BME280;11538;48.884;8.696;2023-08-20T03:23:29;99085.84;;;21.87;100.00
22743;BME280;11538;48.884;8.696;2023-08-20T03:25:59;99084.25;;;21.86;100.00
22743;BME280;11538;48.884;8.696;2023-08-20T03:28:26;99089.41;;;21.87;100.00
22743;BME280;11538;48.884;8.696;2023-08-20T03:30:53;99086.47;;;21.76;100.00
22743;BME280;11538;48.884;8.696;2023-08-20T03:33:20;99091.56;;;21.74;100.00
22743;BME280;11538;48.884;8.696;2023-08-20T03:35:47;99086.34;;;21.69;100.00
22743;BME280;11538;48.884;8.696;2023-08-20T03:38:14;99078.34;;;21.64;100.00
22743;BME280;11538;48.884;8.696;2023-08-20T03:40:41;99080.38;;;21.67;100.00
22743;BME280;11538;48.884;8.696;2023-08-20T03:43:08;99069.78;;;21.69;100.00
22743;BME280;11538;48.884;8.696;2023-08-20T03:45:35;99081.44;;;21.62;100.00
22743;BME280;11538;48.884;8.696;2023-08-20T03:48:02;99079.38;;;21.56;100.00
22743;BME280;11538;48.884;8.696;2023-08-20T03:50:29;99087.81;;;21.63;100.00
22743;BME280;11538;48.884;8.696;2023-08-20T03:52:56;99081.91;;;21.65;100.00
22743;BME280;11538;48.884;8.696;2023-08-20T03:55:24;99087.63;;;21.75;100.00
22743;BME280;11538;48.884;8.696;2023-08-20T03:57:51;99088.78;;;21.74;100.00
22743;BME280;11538;48.884;8.696;2023-08-20T04:00:17;99094.63;;;21.69;100.00
22743;BME280;11538;48.884;8.696;2023-08-20T04:02:44;99094.47;;;21.62;100.00
22743;BME280;11538;48.884;8.696;2023-08-20T04:05:11;99099.56;;;21.60;100.00
22743;BME280;11538;48.884;8.696;2023-08-20T04:07:38;99107.69;;;21.53;100.00
22743;BME280;11538;48.884;8.696;2023-08-20T04:10:08;99119.47;;;21.50;100.00
22743;BME280;11538;48.884;8.696;2023-08-20T04:12:36;99118.44;;;21.58;100.00
22743;BME280;11538;48.884;8.696;2023-08-20T04:15:03;99124.47;;;21.64;100.00
22743;BME280;11538;48.884;8.696;2023-08-20T04:17:30;99122.66;;;21.71;100.00
22743;BME280;11538;48.884;8.696;2023-08-20T04:19:57;99140.50;;;21.77;100.00
22743;BME280;11538;48.884;8.696;2023-08-20T04:22:24;99133.25;;;21.69;100.00
22743;BME280;11538;48.884;8.696;2023-08-20T04:24:51;99141.38;;;21.62;100.00
22743;BME280;11538;48.884;8.696;2023-08-20T04:27:18;99138.34;;;21.47;100.00
22743;BME280;11538;48.884;8.696;2023-08-20T04:29:45;99138.13;;;21.37;100.00
22743;BME280;11538;48.884;8.696;2023-08-20T04:32:12;99125.94;;;21.38;100.00
22743;BME280;11538;48.884;8.696;2023-08-20T04:34:39;99114.84;;;21.34;100.00
22743;BME280;11538;48.884;8.696;2023-08-20T04:37:06;99111.34;;;21.37;100.00
22743;BME280;11538;48.884;8.696;2023-08-20T04:39:33;99107.00;;;21.36;100.00
22743;BME280;11538;48.884;8.696;2023-08-20T04:41:59;99120.50;;;21.41;100.00
22743;BME280;11538;48.884;8.696;2023-08-20T04:44:27;99119.09;;;21.51;100.00
22743;BME280;11538;48.884;8.696;2023-08-20T04:46:54;99118.78;;;21.56;100.00
22743;BME280;11538;48.884;8.696;2023-08-20T04:49:21;99121.97;;;21.58;100.00
22743;BME280;11538;48.884;8.696;2023-08-20T04:51:48;99127.38;;;21.51;100.00
22743;BME280;11538;48.884;8.696;2023-08-20T04:54:15;99126.03;;;21.41;100.00
22743;BME280;11538;48.884;8.696;2023-08-20T04:56:42;99132.31;;;21.42;100.00
22743;BME280;11538;48.884;8.696;2023-08-20T04:59:09;99116.13;;;21.40;100.00
22743;BME280;11538;48.884;8.696;2023-08-20T05:01:39;99117.00;;;21.44;100.00
22743;BME280;11538;48.884;8.696;2023-08-20T05:04:06;99118.19;;;21.43;100.00
22743;BME280;11538;48.884;8.696;2023-08-20T05:06:33;99125.72;;;21.46;100.00
22743;BME280;11538;48.884;8.696;2023-08-20T05:08:59;99135.00;;;21.58;100.00
22743;BME280;11538;48.884;8.696;2023-08-20T05:11:27;99136.31;;;21.64;100.00
22743;BME280;11538;48.884;8.696;2023-08-20T05:13:55;99130.06;;;21.67;100.00
22743;BME280;11538;48.884;8.696;2023-08-20T05:16:22;99121.50;;;21.72;100.00
22743;BME280;11538;48.884;8.696;2023-08-20T05:18:49;99125.03;;;21.73;100.00
22743;BME280;11538;48.884;8.696;2023-08-20T05:21:16;99128.47;;;21.66;100.00
22743;BME280;11538;48.884;8.696;2023-08-20T05:23:43;99134.34;;;21.65;100.00
22743;BME280;11538;48.884;8.696;2023-08-20T05:26:10;99145.91;;;21.70;100.00
22743;BME280;11538;48.884;8.696;2023-08-20T05:28:37;99135.03;;;21.81;100.00
22743;BME280;11538;48.884;8.696;2023-08-20T05:31:04;99135.31;;;21.96;100.00
22743;BME280;11538;48.884;8.696;2023-08-20T05:33:31;99132.97;;;21.98;100.00
22743;BME280;11538;48.884;8.696;2023-08-20T05:35:59;99147.09;;;21.93;100.00
22743;BME280;11538;48.884;8.696;2023-08-20T05:38:26;99149.34;;;21.87;100.00
22743;BME280;11538;48.884;8.696;2023-08-20T05:40:53;99149.34;;;21.87;100.00
22743;BME280;11538;48.884;8.696;2023-08-20T05:43:20;99138.19;;;21.80;100.00
22743;BME280;11538;48.884;8.696;2023-08-20T05:45:47;99153.16;;;21.79;100.00
22743;BME280;11538;48.884;8.696;2023-08-20T05:48:14;99153.16;;;21.79;100.00
22743;BME280;11538;48.884;8.696;2023-08-20T05:50:41;99150.94;;;21.88;100.00
22743;BME280;11538;48.884;8.696;2023-08-20T05:53:08;99150.47;;;22.05;100.00
22743;BME280;11538;48.884;8.696;2023-08-20T05:55:35;99142.41;;;22.20;100.00
22743;BME280;11538;48.884;8.696;2023-08-20T05:58:05;99152.72;;;22.23;100.00
22743;BME280;11538;48.884;8.696;2023-08-20T06:00:32;99162.19;;;22.22;100.00
22743;BME280;11538;48.884;8.696;2023-08-20T06:03:01;99159.78;;;22.20;100.00
22743;BME280;11538;48.884;8.696;2023-08-20T06:05:29;99157.50;;;22.26;100.00
22743;BME280;11538;48.884;8.696;2023-08-20T06:08:00;99161.94;;;22.31;100.00
22743;BME280;11538;48.884;8.696;2023-08-20T06:10:27;99155.72;;;22.38;100.00
22743;BME280;11538;48.884;8.696;2023-08-20T06:12:54;99169.66;;;22.45;100.00
22743;BME280;11538;48.884;8.696;2023-08-20T06:15:21;99167.75;;;22.49;100.00
22743;BME280;11538;48.884;8.696;2023-08-20T06:17:48;99163.09;;;22.53;100.00
22743;BME280;11538;48.884;8.696;2023-08-20T06:20:15;99165.91;;;22.57;100.00
22743;BME280;11538;48.884;8.696;2023-08-20T06:22:45;99170.34;;;22.61;100.00
22743;BME280;11538;48.884;8.696;2023-08-20T06:25:12;99170.44;;;22.69;100.00
22743;BME280;11538;48.884;8.696;2023-08-20T06:27:41;99174.38;;;22.68;100.00
22743;BME280;11538;48.884;8.696;2023-08-20T06:30:09;99170.38;;;22.65;100.00
22743;BME280;11538;48.884;8.696;2023-08-20T06:32:36;99181.00;;;22.63;100.00
22743;BME280;11538;48.884;8.696;2023-08-20T06:35:04;99179.06;;;22.63;100.00
22743;BME280;11538;48.884;8.696;2023-08-20T06:37:31;99181.50;;;22.69;100.00
22743;BME280;11538;48.884;8.696;2023-08-20T06:39:58;99179.94;;;22.71;100.00
22743;BME280;11538;48.884;8.696;2023-08-20T06:42:25;99179.59;;;22.73;100.00
22743;BME280;11538;48.884;8.696;2023-08-20T06:44:52;99182.47;;;22.80;100.00
22743;BME280;11538;48.884;8.696;2023-08-20T06:47:19;99185.75;;;22.89;100.00
22743;BME280;11538;48.884;8.696;2023-08-20T06:49:45;99179.47;;;22.92;100.00
22743;BME280;11538;48.884;8.696;2023-08-20T06:52:12;99181.91;;;22.98;100.00
22743;BME280;11538;48.884;8.696;2023-08-20T06:54:39;99182.00;;;23.05;100.00
22743;BME280;11538;48.884;8.696;2023-08-20T06:57:07;99186.47;;;23.13;100.00
22743;BME280;11538;48.884;8.696;2023-08-20T06:59:33;99182.25;;;23.23;100.00
22743;BME280;11538;48.884;8.696;2023-08-20T07:02:01;99187.16;;;23.33;100.00
22743;BME280;11538;48.884;8.696;2023-08-20T07:04:30;99195.16;;;23.42;100.00
22743;BME280;11538;48.884;8.696;2023-08-20T07:06:58;99193.66;;;23.48;100.00
22743;BME280;11538;48.884;8.696;2023-08-20T07:09:25;99198.06;;;23.53;100.00
22743;BME280;11538;48.884;8.696;2023-08-20T07:11:52;99196.16;;;23.61;100.00
22743;BME280;11538;48.884;8.696;2023-08-20T07:14:19;99196.66;;;23.70;100.00
22743;BME280;11538;48.884;8.696;2023-08-20T07:16:46;99197.91;;;23.76;100.00
22743;BME280;11538;48.884;8.696;2023-08-20T07:19:13;99199.56;;;23.85;100.00
22743;BME280;11538;48.884;8.696;2023-08-20T07:21:40;99191.72;;;23.90;100.00
22743;BME280;11538;48.884;8.696;2023-08-20T07:24:07;99198.59;;;24.00;100.00
22743;BME280;11538;48.884;8.696;2023-08-20T07:26:34;99198.28;;;24.09;100.00
22743;BME280;11538;48.884;8.696;2023-08-20T07:29:01;99201.56;;;24.22;100.00
22743;BME280;11538;48.884;8.696;2023-08-20T07:31:32;99204.84;;;24.35;100.00
22743;BME280;11538;48.884;8.696;2023-08-20T07:34:01;99207.31;;;24.47;100.00
22743;BME280;11538;48.884;8.696;2023-08-20T07:36:32;99209.41;;;24.61;100.00
22743;BME280;11538;48.884;8.696;2023-08-20T07:38:59;99221.44;;;24.76;100.00
22743;BME280;11538;48.884;8.696;2023-08-20T07:41:28;99215.97;;;24.91;100.00
22743;BME280;11538;48.884;8.696;2023-08-20T07:43:55;99217.25;;;25.08;100.00
22743;BME280;11538;48.884;8.696;2023-08-20T07:46:22;99218.56;;;25.25;100.00
22743;BME280;11538;48.884;8.696;2023-08-20T07:48:49;99219.03;;;25.41;100.00
22743;BME280;11538;48.884;8.696;2023-08-20T07:51:16;99215.13;;;25.57;100.00
22743;BME280;11538;48.884;8.696;2023-08-20T07:53:43;99209.63;;;25.72;100.00
22743;BME280;11538;48.884;8.696;2023-08-20T07:56:10;99205.69;;;25.83;100.00
22743;BME280;11538;48.884;8.696;2023-08-20T07:58:37;99213.28;;;25.97;100.00
22743;BME280;11538;48.884;8.696;2023-08-20T08:01:04;99211.31;;;26.12;100.00
22743;BME280;11538;48.884;8.696;2023-08-20T08:03:31;99220.88;;;26.22;99.68
22743;BME280;11538;48.884;8.696;2023-08-20T08:05:58;99213.72;;;26.32;99.69
22743;BME280;11538;48.884;8.696;2023-08-20T08:08:25;99214.91;;;26.46;98.34
22743;BME280;11538;48.884;8.696;2023-08-20T08:10:52;99214.16;;;26.63;98.10
22743;BME280;11538;48.884;8.696;2023-08-20T08:13:22;99221.28;;;26.79;96.34
22743;BME280;11538;48.884;8.696;2023-08-20T08:15:50;99220.88;;;26.98;96.13
22743;BME280;11538;48.884;8.696;2023-08-20T08:18:19;99214.47;;;27.16;94.54
22743;BME280;11538;48.884;8.696;2023-08-20T08:20:46;99210.03;;;27.29;92.94
22743;BME280;11538;48.884;8.696;2023-08-20T08:23:13;99219.91;;;27.45;93.66
22743;BME280;11538;48.884;8.696;2023-08-20T08:25:41;99215.09;;;27.67;92.49
22743;BME280;11538;48.884;8.696;2023-08-20T08:28:08;99216.59;;;27.86;90.93
22743;BME280;11538;48.884;8.696;2023-08-20T08:30:35;99224.47;;;27.99;90.24
22743;BME280;11538;48.884;8.696;2023-08-20T08:33:02;99215.63;;;28.11;88.42
22743;BME280;11538;48.884;8.696;2023-08-20T08:35:29;99222.72;;;28.23;87.25
22743;BME280;11538;48.884;8.696;2023-08-20T08:37:56;99222.00;;;28.15;87.25
22743;BME280;11538;48.884;8.696;2023-08-20T08:40:29;99232.63;;;28.31;86.81
22743;BME280;11538;48.884;8.696;2023-08-20T08:42:56;99224.09;;;28.53;84.21
22743;BME280;11538;48.884;8.696;2023-08-20T08:45:26;99221.88;;;28.75;86.51
22743;BME280;11538;48.884;8.696;2023-08-20T08:47:54;99224.25;;;28.84;83.92
22743;BME280;11538;48.884;8.696;2023-08-20T08:50:22;99220.63;;;28.87;84.08
22743;BME280;11538;48.884;8.696;2023-08-20T08:52:51;99226.16;;;28.91;82.80
22743;BME280;11538;48.884;8.696;2023-08-20T08:55:20;99235.16;;;28.64;83.53
22743;BME280;11538;48.884;8.696;2023-08-20T08:57:46;99236.81;;;28.58;85.92
22743;BME280;11538;48.884;8.696;2023-08-20T09:00:14;99241.09;;;28.70;87.41
22743;BME280;11538;48.884;8.696;2023-08-20T09:02:42;99241.16;;;29.08;83.89
22743;BME280;11538;48.884;8.696;2023-08-20T09:05:09;99235.28;;;29.33;83.67
22743;BME280;11538;48.884;8.696;2023-08-20T09:07:42;99236.19;;;29.58;82.47
22743;BME280;11538;48.884;8.696;2023-08-20T09:10:10;99231.91;;;29.81;81.75
22743;BME280;11538;48.884;8.696;2023-08-20T09:12:37;99230.44;;;30.03;80.21
22743;BME280;11538;48.884;8.696;2023-08-20T09:15:11;99222.19;;;30.20;80.79
22743;BME280;11538;48.884;8.696;2023-08-20T09:17:41;99219.03;;;30.42;77.87
22743;BME280;11538;48.884;8.696;2023-08-20T09:20:09;99217.75;;;30.46;76.04
22743;BME280;11538;48.884;8.696;2023-08-20T09:22:36;99225.19;;;30.57;78.09
22743;BME280;11538;48.884;8.696;2023-08-20T09:25:04;99228.56;;;30.72;77.37
22743;BME280;11538;48.884;8.696;2023-08-20T09:27:39;99231.19;;;30.83;75.96
22743;BME280;11538;48.884;8.696;2023-08-20T09:30:10;99237.00;;;30.92;74.94
22743;BME280;11538;48.884;8.696;2023-08-20T09:32:44;99236.78;;;31.03;75.72
22743;BME280;11538;48.884;8.696;2023-08-20T09:35:18;99231.78;;;31.14;72.70
22743;BME280;11538;48.884;8.696;2023-08-20T09:37:45;99235.97;;;31.26;75.27
22743;BME280;11538;48.884;8.696;2023-08-20T09:40:12;99231.25;;;31.23;72.28
22743;BME280;11538;48.884;8.696;2023-08-20T09:42:39;99237.88;;;31.33;72.51
22743;BME280;11538;48.884;8.696;2023-08-20T09:45:08;99243.53;;;31.49;71.58
22743;BME280;11538;48.884;8.696;2023-08-20T09:47:38;99241.44;;;31.54;70.49
22743;BME280;11538;48.884;8.696;2023-08-20T09:50:10;99243.00;;;31.75;71.46
22743;BME280;11538;48.884;8.696;2023-08-20T09:52:51;99246.59;;;31.96;69.00
22743;BME280;11538;48.884;8.696;2023-08-20T09:55:21;99240.28;;;31.91;66.80
22743;BME280;11538;48.884;8.696;2023-08-20T09:57:53;99243.25;;;32.01;67.58
22743;BME280;11538;48.884;8.696;2023-08-20T10:00:24;99234.50;;;32.15;67.89
22743;BME280;11538;48.884;8.696;2023-08-20T10:02:52;99240.16;;;32.32;69.25
22743;BME280;11538;48.884;8.696;2023-08-20T10:05:20;99241.66;;;32.53;66.53
22743;BME280;11538;48.884;8.696;2023-08-20T10:07:50;99236.66;;;32.44;65.08
22743;BME280;11538;48.884;8.696;2023-08-20T10:10:18;99238.38;;;32.55;64.20
22743;BME280;11538;48.884;8.696;2023-08-20T10:12:45;99232.66;;;32.75;67.61
22743;BME280;11538;48.884;8.696;2023-08-20T10:15:14;99236.06;;;32.99;69.33
22743;BME280;11538;48.884;8.696;2023-08-20T10:17:44;99229.81;;;33.08;65.83
22743;BME280;11538;48.884;8.696;2023-08-20T10:20:14;99236.81;;;33.16;62.44
22743;BME280;11538;48.884;8.696;2023-08-20T10:22:44;99230.00;;;33.30;65.44
22743;BME280;11538;48.884;8.696;2023-08-20T10:25:25;99233.66;;;33.44;64.66
22743;BME280;11538;48.884;8.696;2023-08-20T10:27:54;99237.78;;;33.39;61.97
22743;BME280;11538;48.884;8.696;2023-08-20T10:30:26;99235.56;;;33.47;61.54
22743;BME280;11538;48.884;8.696;2023-08-20T10:32:57;99232.22;;;33.52;64.11
22743;BME280;11538;48.884;8.696;2023-08-20T10:38:12;99228.22;;;33.92;62.24
22743;BME280;11538;48.884;8.696;2023-08-20T10:43:28;99231.47;;;34.16;59.30
22743;BME280;11538;48.884;8.696;2023-08-20T10:46:22;99219.06;;;34.39;60.41
22743;BME280;11538;48.884;8.696;2023-08-20T10:48:56;99219.50;;;34.38;57.55
22743;BME280;11538;48.884;8.696;2023-08-20T10:51:34;99221.56;;;34.50;59.48
22743;BME280;11538;48.884;8.696;2023-08-20T10:56:54;99220.19;;;34.90;53.14
22743;BME280;11538;48.884;8.696;2023-08-20T10:59:26;99211.47;;;34.75;54.20
22743;BME280;11538;48.884;8.696;2023-08-20T11:01:57;99213.41;;;34.65;54.16
22743;BME280;11538;48.884;8.696;2023-08-20T11:04:30;99219.84;;;35.01;55.42
22743;BME280;11538;48.884;8.696;2023-08-20T11:07:00;99211.97;;;35.18;52.68
22743;BME280;11538;48.884;8.696;2023-08-20T11:09:30;99209.91;;;35.41;52.82
22743;BME280;11538;48.884;8.696;2023-08-20T11:11:58;99214.00;;;35.40;51.45
22743;BME280;11538;48.884;8.696;2023-08-20T11:14:26;99204.28;;;35.41;53.36
22743;BME280;11538;48.884;8.696;2023-08-20T11:16:54;99209.41;;;35.55;53.00
22743;BME280;11538;48.884;8.696;2023-08-20T11:19:23;99209.00;;;35.76;50.45
22743;BME280;11538;48.884;8.696;2023-08-20T11:21:51;99207.19;;;35.82;50.35
22743;BME280;11538;48.884;8.696;2023-08-20T11:24:19;99208.09;;;36.20;51.98
22743;BME280;11538;48.884;8.696;2023-08-20T11:26:48;99206.13;;;36.48;48.70
22743;BME280;11538;48.884;8.696;2023-08-20T11:29:16;99203.59;;;36.32;46.93
22743;BME280;11538;48.884;8.696;2023-08-20T11:31:48;99200.25;;;36.14;50.31
22743;BME280;11538;48.884;8.696;2023-08-20T11:34:15;99198.94;;;36.94;50.37
22743;BME280;11538;48.884;8.696;2023-08-20T11:36:43;99197.47;;;37.36;46.38
22743;BME280;11538;48.884;8.696;2023-08-20T11:39:11;99199.13;;;37.70;43.28
22743;BME280;11538;48.884;8.696;2023-08-20T11:41:40;99196.56;;;37.82;43.65
22743;BME280;11538;48.884;8.696;2023-08-20T11:44:10;99198.56;;;38.24;42.32
22743;BME280;11538;48.884;8.696;2023-08-20T11:46:47;99194.88;;;38.09;42.84
22743;BME280;11538;48.884;8.696;2023-08-20T11:49:15;99197.47;;;37.88;42.75
22743;BME280;11538;48.884;8.696;2023-08-20T11:51:48;99195.00;;;38.48;41.56
22743;BME280;11538;48.884;8.696;2023-08-20T11:54:18;99188.84;;;38.50;40.72
22743;BME280;11538;48.884;8.696;2023-08-20T11:56:50;99193.28;;;39.05;39.96
22743;BME280;11538;48.884;8.696;2023-08-20T11:59:21;99189.78;;;39.55;38.84
22743;BME280;11538;48.884;8.696;2023-08-20T12:02:02;99187.50;;;39.59;38.13
22743;BME280;11538;48.884;8.696;2023-08-20T12:04:32;99186.53;;;39.62;38.33
22743;BME280;11538;48.884;8.696;2023-08-20T12:07:15;99182.63;;;39.30;44.87
22743;BME280;11538;48.884;8.696;2023-08-20T12:09:42;99182.91;;;38.63;40.24
22743;BME280;11538;48.884;8.696;2023-08-20T12:12:09;99175.75;;;38.52;44.24
22743;BME280;11538;48.884;8.696;2023-08-20T12:14:37;99175.56;;;38.95;39.74
22743;BME280;11538;48.884;8.696;2023-08-20T12:17:04;99176.84;;;39.39;38.38
22743;BME280;11538;48.884;8.696;2023-08-20T12:19:31;99177.09;;;39.71;37.14
22743;BME280;11538;48.884;8.696;2023-08-20T12:21:58;99173.06;;;39.93;36.79
22743;BME280;11538;48.884;8.696;2023-08-20T12:24:26;99175.28;;;40.04;36.31
22743;BME280;11538;48.884;8.696;2023-08-20T12:26:56;99173.63;;;40.33;36.25
22743;BME280;11538;48.884;8.696;2023-08-20T12:29:26;99165.59;;;40.52;36.13
22743;BME280;11538;48.884;8.696;2023-08-20T12:31:53;99165.72;;;40.63;35.52
22743;BME280;11538;48.884;8.696;2023-08-20T12:34:20;99161.63;;;40.91;35.41
22743;BME280;11538;48.884;8.696;2023-08-20T12:36:49;99156.16;;;40.87;35.43
22743;BME280;11538;48.884;8.696;2023-08-20T12:39:18;99157.69;;;40.62;35.63
22743;BME280;11538;48.884;8.696;2023-08-20T12:41:45;99157.59;;;40.77;35.49
22743;BME280;11538;48.884;8.696;2023-08-20T12:44:12;99145.91;;;41.22;34.53
22743;BME280;11538;48.884;8.696;2023-08-20T12:46:39;99156.81;;;41.03;34.48
22743;BME280;11538;48.884;8.696;2023-08-20T12:49:07;99154.03;;;40.82;34.70
22743;BME280;11538;48.884;8.696;2023-08-20T12:51:34;99160.44;;;40.77;34.17
22743;BME280;11538;48.884;8.696;2023-08-20T12:54:02;99148.16;;;40.65;34.51
22743;BME280;11538;48.884;8.696;2023-08-20T12:56:30;99151.31;;;40.93;33.91
22743;BME280;11538;48.884;8.696;2023-08-20T12:58:57;99139.91;;;41.14;33.36
22743;BME280;11538;48.884;8.696;2023-08-20T13:01:24;99141.19;;;41.13;32.46
22743;BME280;11538;48.884;8.696;2023-08-20T13:03:51;99135.16;;;41.37;32.54
22743;BME280;11538;48.884;8.696;2023-08-20T13:06:19;99137.84;;;41.53;32.36
22743;BME280;11538;48.884;8.696;2023-08-20T13:08:47;99139.16;;;41.19;31.79
22743;BME280;11538;48.884;8.696;2023-08-20T13:11:17;99129.91;;;41.25;32.45
22743;BME280;11538;48.884;8.696;2023-08-20T13:13:47;99126.16;;;41.45;32.07